createdAt,value
2022-08-28T00:01:45.778Z,62.10
2022-08-28T00:04:15.513Z,62.30
2022-08-28T00:06:42.253Z,62.00
2022-08-28T00:09:08.984Z,62.10
2022-08-28T00:11:38.383Z,62.20
2022-08-28T00:14:06.139Z,63.10
2022-08-28T00:16:33.575Z,62.70
2022-08-28T00:19:02.027Z,62.40
2022-08-28T00:21:29.878Z,62.00
2022-08-28T00:23:56.572Z,61.50
2022-08-28T00:26:41.806Z,61.20
2022-08-28T00:29:08.638Z,61.00
2022-08-28T00:31:37.524Z,60.00
2022-08-28T00:34:04.481Z,60.20
2022-08-28T00:36:31.274Z,60.30
2022-08-28T00:39:00.249Z,60.40
2022-08-28T00:41:31.347Z,60.40
2022-08-28T00:44:06.376Z,60.40
2022-08-28T00:46:33.163Z,60.50
2022-08-28T00:48:59.896Z,60.90
2022-08-28T00:51:45.400Z,60.80
2022-08-28T00:54:12.088Z,61.10
2022-08-28T00:56:38.947Z,60.80
2022-08-28T00:59:07.481Z,61.20
2022-08-28T01:01:34.247Z,61.20
2022-08-28T01:04:02.384Z,61.20
2022-08-28T01:06:29.077Z,61.10
2022-08-28T01:08:55.860Z,61.10
2022-08-28T01:11:25.786Z,61.00
2022-08-28T01:13:54.407Z,61.30
2022-08-28T01:16:23.041Z,61.40
2022-08-28T01:18:55.064Z,61.30
2022-08-28T01:21:29.410Z,61.50
2022-08-28T01:24:03.193Z,62.30
2022-08-28T01:26:29.890Z,61.50
2022-08-28T01:28:58.408Z,61.50
2022-08-28T01:31:25.415Z,62.20
2022-08-28T01:33:52.195Z,62.20
2022-08-28T01:36:18.960Z,61.70
2022-08-28T01:38:46.541Z,61.50
2022-08-28T01:41:14.072Z,61.00
2022-08-28T01:43:41.113Z,61.40
2022-08-28T01:46:08.053Z,60.10
2022-08-28T01:48:36.135Z,59.90
2022-08-28T01:51:03.391Z,59.50
2022-08-28T01:53:32.673Z,59.30
2022-08-28T01:56:00.262Z,59.50
2022-08-28T01:58:28.028Z,59.40
2022-08-28T02:00:57.520Z,59.60
2022-08-28T02:03:24.371Z,59.70
2022-08-28T02:05:51.761Z,59.80
2022-08-28T02:08:18.535Z,60.00
2022-08-28T02:10:45.375Z,59.90
2022-08-28T02:13:12.410Z,60.00
2022-08-28T02:15:39.417Z,60.10
2022-08-28T02:18:06.808Z,60.00
2022-08-28T02:20:33.994Z,60.00
2022-08-28T02:23:00.729Z,60.10
2022-08-28T02:25:27.703Z,60.30
2022-08-28T02:27:54.554Z,60.30
2022-08-28T02:30:21.319Z,60.30
2022-08-28T02:32:48.022Z,60.20
2022-08-28T02:35:15.427Z,60.50
2022-08-28T02:37:44.286Z,60.40
2022-08-28T02:40:14.323Z,60.60
2022-08-28T02:42:42.018Z,60.70
2022-08-28T02:45:10.935Z,60.60
2022-08-28T02:47:38.991Z,60.70
2022-08-28T02:50:06.054Z,60.70
2022-08-28T02:52:33.189Z,60.80
2022-08-28T02:54:59.874Z,61.50
2022-08-28T02:57:27.416Z,61.20
2022-08-28T02:59:54.124Z,61.10
2022-08-28T03:02:20.885Z,60.60
2022-08-28T03:04:48.425Z,60.20
2022-08-28T03:07:16.878Z,59.90
2022-08-28T03:09:44.238Z,60.50
2022-08-28T03:12:13.160Z,59.20
2022-08-28T03:14:39.888Z,58.90
2022-08-28T03:17:07.463Z,59.00
2022-08-28T03:19:34.424Z,58.90
2022-08-28T03:22:01.153Z,59.00
2022-08-28T03:24:27.833Z,59.00
2022-08-28T03:26:54.861Z,59.20
2022-08-28T03:29:21.580Z,59.40
2022-08-28T03:31:48.288Z,59.40
2022-08-28T03:34:14.975Z,59.30
2022-08-28T03:36:41.713Z,59.40
2022-08-28T03:39:08.414Z,59.60
2022-08-28T03:41:35.132Z,59.70
2022-08-28T03:44:02.037Z,59.60
2022-08-28T03:46:32.226Z,59.80
2022-08-28T03:48:59.450Z,59.90
2022-08-28T03:51:29.624Z,60.00
2022-08-28T03:53:59.785Z,59.90
2022-08-28T03:56:26.895Z,59.90
2022-08-28T03:58:54.581Z,60.00
2022-08-28T04:01:21.448Z,59.90
2022-08-28T04:03:48.258Z,59.90
2022-08-28T04:06:14.952Z,59.90
2022-08-28T04:08:41.790Z,60.10
2022-08-28T04:11:08.511Z,60.00
2022-08-28T04:13:35.222Z,60.10
2022-08-28T04:16:06.527Z,60.10
2022-08-28T04:18:33.361Z,60.20
2022-08-28T04:21:05.672Z,60.70
2022-08-28T04:23:32.374Z,60.90
2022-08-28T04:25:59.091Z,61.40
2022-08-28T04:28:25.992Z,60.30
2022-08-28T04:30:54.597Z,60.00
2022-08-28T04:33:21.992Z,59.70
2022-08-28T04:35:49.276Z,59.40
2022-08-28T04:38:16.137Z,59.00
2022-08-28T04:40:43.217Z,58.70
2022-08-28T04:43:09.967Z,59.20
2022-08-28T04:45:40.755Z,58.60
2022-08-28T04:48:10.506Z,58.60
2022-08-28T04:50:44.187Z,58.90
2022-08-28T04:53:11.032Z,58.90
2022-08-28T04:55:54.125Z,59.60
2022-08-28T04:58:22.824Z,59.10
2022-08-28T05:00:51.308Z,59.20
2022-08-28T05:03:18.165Z,59.20
2022-08-28T05:05:45.387Z,59.30
2022-08-28T05:08:12.916Z,59.40
2022-08-28T05:10:40.415Z,59.40
2022-08-28T05:13:08.443Z,59.50
2022-08-28T05:15:39.062Z,59.40
2022-08-28T05:18:06.005Z,59.40
2022-08-28T05:20:39.012Z,59.40
2022-08-28T05:23:06.130Z,59.50
2022-08-28T05:25:36.463Z,59.50
2022-08-28T05:28:03.344Z,59.50
2022-08-28T05:30:30.035Z,59.60
2022-08-28T05:32:56.803Z,59.80
2022-08-28T05:35:24.970Z,59.70
2022-08-28T05:37:52.697Z,59.70
2022-08-28T05:40:22.333Z,59.80
2022-08-28T05:42:49.570Z,59.70
2022-08-28T05:45:16.295Z,59.80
2022-08-28T05:47:43.726Z,59.70
2022-08-28T05:50:10.655Z,60.00
2022-08-28T05:52:37.345Z,60.40
2022-08-28T05:55:05.360Z,60.00
2022-08-28T05:57:32.054Z,59.90
2022-08-28T05:59:58.750Z,59.50
2022-08-28T06:02:26.733Z,59.80
2022-08-28T06:04:54.572Z,58.90
2022-08-28T06:07:21.258Z,58.70
2022-08-28T06:09:47.988Z,58.20
2022-08-28T06:12:15.656Z,58.30
2022-08-28T06:14:42.389Z,58.40
2022-08-28T06:17:09.251Z,58.30
2022-08-28T06:19:40.613Z,58.50
2022-08-28T06:22:09.582Z,57.50
2022-08-28T06:24:36.327Z,57.60
2022-08-28T06:27:03.892Z,58.00
2022-08-28T06:29:30.763Z,58.20
2022-08-28T06:31:58.657Z,58.60
2022-08-28T06:34:25.759Z,58.90
2022-08-28T06:36:54.132Z,59.10
2022-08-28T06:39:21.148Z,59.50
2022-08-28T06:41:47.836Z,60.90
2022-08-28T06:44:18.547Z,60.30
2022-08-28T06:46:45.478Z,60.70
2022-08-28T06:49:12.574Z,60.90
2022-08-28T06:51:39.756Z,60.00
2022-08-28T06:54:06.543Z,59.90
2022-08-28T06:56:33.312Z,60.10
2022-08-28T06:59:00.172Z,60.30
2022-08-28T07:01:29.340Z,60.30
2022-08-28T07:03:59.101Z,60.30
2022-08-28T07:06:25.825Z,60.70
2022-08-28T07:08:52.637Z,60.70
2022-08-28T07:11:26.064Z,60.50
2022-08-28T07:13:53.571Z,61.00
2022-08-28T07:16:20.749Z,61.70
2022-08-28T07:18:47.552Z,61.80
2022-08-28T07:21:14.293Z,62.40
2022-08-28T07:23:42.166Z,62.70
2022-08-28T07:26:10.322Z,61.80
2022-08-28T07:28:37.738Z,61.70
2022-08-28T07:31:05.557Z,60.60
2022-08-28T07:33:32.508Z,61.40
2022-08-28T07:35:59.348Z,62.00
2022-08-28T07:38:26.849Z,61.70
2022-08-28T07:40:54.273Z,61.70
2022-08-28T07:43:39.686Z,61.10
2022-08-28T07:46:07.255Z,61.80
2022-08-28T07:48:35.626Z,62.40
2022-08-28T07:51:02.801Z,62.10
2022-08-28T07:53:33.224Z,61.50
2022-08-28T07:56:02.945Z,61.10
2022-08-28T07:58:29.949Z,61.30
2022-08-28T08:00:56.729Z,60.20
2022-08-28T08:03:23.484Z,60.40
2022-08-28T08:05:53.930Z,59.30
2022-08-28T08:08:21.430Z,59.20
2022-08-28T08:11:08.386Z,59.50
2022-08-28T08:13:38.452Z,59.90
2022-08-28T08:16:09.363Z,60.10
2022-08-28T08:18:36.195Z,59.70
2022-08-28T08:21:03.938Z,60.40
2022-08-28T08:23:30.993Z,62.30
2022-08-28T08:25:58.296Z,61.10
2022-08-28T08:28:25.047Z,61.00
2022-08-28T08:31:01.937Z,61.10
2022-08-28T08:33:28.728Z,61.70
2022-08-28T08:35:55.985Z,60.80
2022-08-28T08:38:22.700Z,61.40
2022-08-28T08:40:52.408Z,61.50
2022-08-28T08:43:19.092Z,61.40
2022-08-28T08:45:45.800Z,61.00
2022-08-28T08:48:16.158Z,62.10
2022-08-28T08:50:42.895Z,61.10
2022-08-28T08:53:09.752Z,61.40
2022-08-28T08:55:37.614Z,60.90
2022-08-28T08:58:16.512Z,61.40
2022-08-28T09:00:47.230Z,60.80
2022-08-28T09:03:15.424Z,60.90
2022-08-28T09:05:48.497Z,61.60
2022-08-28T09:08:38.514Z,61.90
2022-08-28T09:11:08.395Z,61.50
2022-08-28T09:13:41.207Z,61.70
2022-08-28T09:16:14.040Z,61.10
2022-08-28T09:18:40.905Z,61.10
2022-08-28T09:21:07.609Z,61.10
2022-08-28T09:23:34.294Z,61.60
2022-08-28T09:26:02.735Z,62.50
2022-08-28T09:28:30.820Z,61.80
2022-08-28T09:31:02.187Z,61.30
2022-08-28T09:33:33.635Z,60.90
2022-08-28T09:36:19.151Z,61.00
2022-08-28T09:38:45.851Z,60.50
2022-08-28T09:41:31.319Z,60.40
2022-08-28T09:43:58.529Z,59.70
2022-08-28T09:46:31.357Z,59.60
2022-08-28T09:49:14.010Z,59.10
2022-08-28T09:51:41.732Z,58.80
2022-08-28T09:54:13.579Z,58.00
2022-08-28T09:56:49.143Z,58.80
2022-08-28T09:59:16.874Z,58.90
2022-08-28T10:01:46.496Z,59.00
2022-08-28T10:04:25.593Z,59.40
2022-08-28T10:06:53.759Z,59.50
2022-08-28T10:09:39.258Z,58.90
2022-08-28T10:12:20.130Z,58.10
2022-08-28T10:14:56.967Z,58.30
2022-08-28T10:17:36.150Z,58.40
2022-08-28T10:20:20.179Z,58.70
2022-08-28T10:23:05.913Z,59.10
2022-08-28T10:25:35.733Z,58.30
2022-08-28T10:28:13.283Z,58.40
2022-08-28T10:30:42.879Z,58.80
2022-08-28T10:33:19.068Z,59.60
2022-08-28T10:35:51.170Z,59.40
2022-08-28T10:38:19.433Z,59.20
2022-08-28T10:40:50.153Z,59.00
2022-08-28T10:43:23.124Z,59.00
2022-08-28T10:45:51.635Z,59.20
2022-08-28T10:48:29.043Z,59.30
2022-08-28T10:51:05.853Z,59.10
2022-08-28T10:53:37.546Z,59.20
2022-08-28T10:56:07.291Z,59.00
2022-08-28T10:58:34.417Z,58.70
2022-08-28T11:01:02.302Z,59.10
2022-08-28T11:03:36.706Z,58.50
2022-08-28T11:06:14.594Z,57.80
2022-08-28T11:08:41.359Z,56.20
2022-08-28T11:11:14.878Z,56.80
2022-08-28T11:13:46.437Z,57.40
2022-08-28T11:16:18.581Z,58.20
2022-08-28T11:19:04.401Z,57.60
2022-08-28T11:21:33.399Z,56.70
2022-08-28T11:24:01.516Z,56.90
2022-08-28T11:26:45.858Z,57.20
2022-08-28T11:29:27.804Z,57.70
2022-08-28T11:32:01.858Z,57.80
2022-08-28T11:34:47.498Z,58.00
2022-08-28T11:37:14.196Z,57.90
2022-08-28T11:39:40.896Z,57.50
2022-08-28T11:42:10.746Z,57.60
2022-08-28T11:44:44.637Z,57.50
2022-08-28T11:47:30.137Z,58.00
2022-08-28T11:49:56.950Z,57.50
2022-08-28T11:52:23.663Z,57.10
2022-08-28T11:54:57.883Z,57.20
2022-08-28T11:57:25.908Z,57.70
2022-08-28T12:00:04.372Z,57.50
2022-08-28T12:02:40.236Z,57.40
2022-08-28T12:05:09.398Z,56.80
2022-08-28T12:07:39.941Z,56.50
2022-08-28T12:10:27.498Z,55.90
2022-08-28T12:12:55.346Z,55.70
2022-08-28T12:15:28.097Z,55.20
2022-08-28T12:18:01.605Z,55.10
2022-08-28T12:20:29.984Z,54.80
2022-08-28T12:22:57.897Z,55.60
2022-08-28T12:25:29.734Z,55.80
2022-08-28T12:27:56.831Z,55.70
2022-08-28T12:30:30.159Z,55.90
2022-08-28T12:33:04.350Z,55.90
2022-08-28T12:35:31.113Z,56.30
2022-08-28T12:38:01.439Z,56.00
2022-08-28T12:40:38.293Z,56.20
2022-08-28T12:43:07.465Z,56.30
2022-08-28T12:45:51.846Z,56.10
2022-08-28T12:48:25.835Z,56.60
2022-08-28T12:51:00.214Z,56.20
2022-08-28T12:53:51.355Z,56.60
2022-08-28T12:56:23.325Z,55.80
2022-08-28T12:58:51.651Z,56.10
2022-08-28T13:01:22.694Z,56.20
2022-08-28T13:03:53.973Z,56.30
2022-08-28T13:06:25.792Z,56.70
2022-08-28T13:09:15.250Z,55.90
2022-08-28T13:11:45.346Z,55.70
2022-08-28T13:14:12.022Z,56.00
2022-08-28T13:16:42.006Z,55.50
2022-08-28T13:19:27.152Z,55.40
2022-08-28T13:22:01.981Z,55.50
2022-08-28T13:24:39.065Z,55.50
2022-08-28T13:27:16.770Z,55.40
2022-08-28T13:29:50.312Z,55.70
2022-08-28T13:32:17.532Z,55.70
2022-08-28T13:35:02.582Z,55.40
2022-08-28T13:37:48.985Z,56.00
2022-08-28T13:40:45.989Z,55.70
2022-08-28T13:43:07.187Z,55.40
2022-08-28T13:45:42.825Z,56.10
2022-08-28T13:48:11.171Z,56.00
2022-08-28T13:50:38.990Z,55.40
2022-08-28T13:53:13.379Z,54.80
2022-08-28T13:55:40.140Z,54.90
2022-08-28T13:58:07.515Z,55.00
2022-08-28T14:00:34.943Z,55.00
2022-08-28T14:03:20.365Z,55.30
2022-08-28T14:05:46.952Z,55.00
2022-08-28T14:08:13.628Z,55.40
2022-08-28T14:10:40.365Z,55.60
2022-08-28T14:13:07.090Z,55.20
2022-08-28T14:15:33.821Z,54.90
2022-08-28T14:18:01.069Z,53.70
2022-08-28T14:20:27.786Z,53.70
2022-08-28T14:22:54.414Z,52.80
2022-08-28T14:25:21.019Z,52.90
2022-08-28T14:27:48.352Z,53.20
2022-08-28T14:30:15.059Z,54.20
2022-08-28T14:32:41.655Z,53.70
2022-08-28T14:35:08.548Z,54.40
2022-08-28T14:37:35.175Z,55.50
2022-08-28T14:40:01.989Z,54.70
2022-08-28T14:42:28.753Z,54.70
2022-08-28T14:44:55.346Z,54.70
2022-08-28T14:47:21.971Z,54.10
2022-08-28T14:49:48.802Z,54.30
2022-08-28T14:52:15.502Z,53.60
2022-08-28T14:54:42.169Z,53.80
2022-08-28T14:57:08.782Z,53.60
2022-08-28T14:59:35.369Z,55.20
2022-08-28T15:02:02.117Z,54.40
2022-08-28T15:04:34.288Z,54.30
2022-08-28T15:07:02.239Z,54.20
2022-08-28T15:09:28.957Z,54.20
2022-08-28T15:11:55.614Z,54.70
2022-08-28T15:14:22.214Z,54.70
2022-08-28T15:16:49.335Z,54.10
2022-08-28T15:19:17.734Z,54.30
2022-08-28T15:21:48.526Z,53.30
2022-08-28T15:24:16.064Z,52.40
2022-08-28T15:26:42.932Z,52.90
2022-08-28T15:29:11.818Z,52.40
2022-08-28T15:31:39.893Z,53.20
2022-08-28T15:34:13.470Z,54.20
2022-08-28T15:36:40.946Z,53.70
2022-08-28T15:39:26.376Z,53.70
2022-08-28T15:41:53.031Z,53.60
2022-08-28T15:44:19.597Z,54.50
2022-08-28T15:46:50.614Z,54.10
2022-08-28T15:49:17.213Z,54.50
2022-08-28T15:51:43.823Z,54.90
2022-08-28T15:54:11.307Z,54.70
2022-08-28T15:56:38.014Z,55.70
2022-08-28T15:59:04.635Z,54.80
2022-08-28T16:01:31.217Z,54.20
2022-08-28T16:03:57.844Z,54.40
2022-08-28T16:06:24.445Z,54.70
2022-08-28T16:08:51.081Z,54.40
2022-08-28T16:11:18.069Z,55.20
2022-08-28T16:13:45.476Z,56.50
2022-08-28T16:16:12.177Z,55.00
2022-08-28T16:18:38.926Z,55.20
2022-08-28T16:21:05.699Z,55.20
2022-08-28T16:23:32.670Z,55.30
2022-08-28T16:25:59.538Z,55.50
2022-08-28T16:28:27.114Z,55.30
2022-08-28T16:30:54.059Z,55.90
2022-08-28T16:33:22.227Z,56.20
2022-08-28T16:35:56.304Z,56.90
2022-08-28T16:38:23.365Z,56.10
2022-08-28T16:40:49.989Z,56.10
2022-08-28T16:43:16.592Z,56.40
2022-08-28T16:45:46.254Z,56.70
2022-08-28T16:48:14.026Z,57.10
2022-08-28T16:50:41.074Z,57.50
2022-08-28T16:53:09.331Z,57.80
2022-08-28T16:55:37.218Z,57.80
2022-08-28T16:58:04.307Z,57.80
2022-08-28T17:00:52.391Z,57.70
2022-08-28T17:03:26.164Z,57.70
2022-08-28T17:05:54.165Z,58.30
2022-08-28T17:08:20.909Z,58.80
2022-08-28T17:10:47.558Z,58.80
2022-08-28T17:13:14.278Z,58.30
2022-08-28T17:15:40.908Z,58.60
2022-08-28T17:18:07.777Z,58.20
2022-08-28T17:20:53.351Z,58.00
2022-08-28T17:23:20.146Z,57.70
2022-08-28T17:25:46.828Z,57.50
2022-08-28T17:28:14.498Z,57.40
2022-08-28T17:30:41.333Z,57.60
2022-08-28T17:33:08.057Z,57.90
2022-08-28T17:35:42.014Z,57.90
2022-08-28T17:38:09.007Z,58.20
2022-08-28T17:40:36.131Z,58.40
2022-08-28T17:43:03.639Z,59.10
2022-08-28T17:45:30.322Z,59.30
2022-08-28T17:47:56.919Z,59.20
2022-08-28T17:50:23.624Z,59.00
2022-08-28T17:52:50.385Z,59.30
2022-08-28T17:55:18.551Z,59.90
2022-08-28T17:57:45.143Z,59.60
2022-08-28T18:00:16.235Z,59.70
2022-08-28T18:02:43.259Z,59.70
2022-08-28T18:05:11.035Z,59.60
2022-08-28T18:07:37.863Z,59.30
2022-08-28T18:10:05.815Z,59.20
2022-08-28T18:12:32.389Z,59.10
2022-08-28T18:14:59.002Z,58.90
2022-08-28T18:17:25.634Z,59.30
2022-08-28T18:19:52.278Z,58.30
2022-08-28T18:22:18.916Z,57.90
2022-08-28T18:24:45.537Z,57.60
2022-08-28T18:27:12.168Z,57.30
2022-08-28T18:29:39.664Z,57.20
2022-08-28T18:32:07.425Z,57.20
2022-08-28T18:34:34.839Z,57.40
2022-08-28T18:37:01.552Z,57.40
2022-08-28T18:39:29.945Z,57.40
2022-08-28T18:41:58.019Z,57.50
2022-08-28T18:44:25.168Z,57.70
2022-08-28T18:46:51.895Z,57.80
2022-08-28T18:49:18.603Z,58.00
2022-08-28T18:51:45.313Z,58.10
2022-08-28T18:54:12.417Z,58.20
2022-08-28T18:56:39.891Z,58.40
2022-08-28T18:59:08.133Z,58.50
2022-08-28T19:01:34.976Z,58.50
2022-08-28T19:04:01.863Z,58.80
2022-08-28T19:06:28.563Z,59.00
2022-08-28T19:08:55.267Z,59.10
2022-08-28T19:11:21.895Z,59.10
2022-08-28T19:13:48.506Z,59.30
2022-08-28T19:16:17.034Z,59.40
2022-08-28T19:18:44.077Z,59.30
2022-08-28T19:21:12.213Z,59.50
2022-08-28T19:23:55.292Z,59.40
2022-08-28T19:26:23.839Z,59.30
2022-08-28T19:28:52.630Z,59.10
2022-08-28T19:31:20.544Z,58.90
2022-08-28T19:33:47.267Z,58.70
2022-08-28T19:36:13.999Z,58.50
2022-08-28T19:38:40.829Z,58.30
2022-08-28T19:41:08.005Z,58.30
2022-08-28T19:43:43.015Z,58.40
2022-08-28T19:46:18.459Z,58.40
2022-08-28T19:48:47.900Z,58.60
2022-08-28T19:51:22.362Z,58.60
2022-08-28T19:53:56.116Z,58.60
2022-08-28T19:56:28.085Z,58.70
2022-08-28T19:58:55.346Z,58.60
2022-08-28T20:01:22.145Z,58.80
2022-08-28T20:03:48.807Z,58.80
2022-08-28T20:06:15.586Z,59.00
2022-08-28T20:08:42.288Z,59.00
2022-08-28T20:11:09.743Z,59.00
2022-08-28T20:13:36.679Z,59.10
2022-08-28T20:16:04.031Z,59.10
2022-08-28T20:18:30.733Z,59.10
2022-08-28T20:20:57.372Z,59.10
2022-08-28T20:23:24.014Z,59.10
2022-08-28T20:25:51.244Z,59.10
2022-08-28T20:28:18.035Z,59.10
2022-08-28T20:30:44.857Z,59.00
2022-08-28T20:33:11.506Z,59.10
2022-08-28T20:35:38.146Z,59.10
2022-08-28T20:38:04.748Z,58.90
2022-08-28T20:40:31.416Z,58.70
2022-08-28T20:42:58.484Z,58.40
2022-08-28T20:45:25.171Z,57.90
2022-08-28T20:47:51.892Z,57.60
2022-08-28T20:50:18.474Z,57.20
2022-08-28T20:52:45.267Z,57.00
2022-08-28T20:55:13.677Z,56.70
2022-08-28T20:57:40.348Z,56.60
2022-08-28T21:00:08.576Z,56.60
2022-08-28T21:02:35.209Z,56.60
2022-08-28T21:05:01.961Z,56.50
2022-08-28T21:07:28.824Z,56.60
2022-08-28T21:10:05.762Z,56.60
2022-08-28T21:12:35.910Z,56.70
2022-08-28T21:15:02.778Z,56.80
2022-08-28T21:17:30.774Z,56.70
2022-08-28T21:19:58.670Z,56.90
2022-08-28T21:22:25.299Z,56.90
2022-08-28T21:24:51.894Z,56.90
2022-08-28T21:27:19.100Z,56.90
2022-08-28T21:29:46.017Z,56.90
2022-08-28T21:32:12.806Z,57.10
2022-08-28T21:34:39.459Z,56.90
2022-08-28T21:37:06.442Z,56.90
2022-08-28T21:39:33.250Z,57.00
2022-08-28T21:41:59.896Z,57.00
2022-08-28T21:44:26.512Z,57.10
2022-08-28T21:46:53.123Z,57.10
2022-08-28T21:49:19.834Z,57.10
2022-08-28T21:51:46.432Z,57.10
2022-08-28T21:54:13.318Z,56.90
2022-08-28T21:56:40.022Z,56.70
2022-08-28T21:59:06.796Z,56.40
2022-08-28T22:01:33.524Z,56.20
2022-08-28T22:04:00.204Z,55.90
2022-08-28T22:06:26.997Z,55.60
2022-08-28T22:08:53.785Z,55.50
2022-08-28T22:11:24.861Z,55.50
2022-08-28T22:13:52.044Z,55.60
2022-08-28T22:16:18.681Z,55.50
2022-08-28T22:18:45.384Z,55.60
2022-08-28T22:21:34.347Z,55.70
2022-08-28T22:24:00.944Z,55.70
2022-08-28T22:26:27.569Z,55.90
2022-08-28T22:28:54.272Z,55.90
2022-08-28T22:31:20.925Z,56.00
2022-08-28T22:33:47.595Z,56.10
2022-08-28T22:36:14.211Z,56.10
2022-08-28T22:38:41.149Z,56.10
2022-08-28T22:41:13.743Z,56.00
2022-08-28T22:43:40.425Z,56.10
2022-08-28T22:46:07.268Z,56.10
2022-08-28T22:48:34.115Z,56.20
2022-08-28T22:51:02.885Z,56.20
2022-08-28T22:53:30.225Z,56.40
2022-08-28T22:55:57.067Z,56.40
2022-08-28T22:58:23.669Z,56.20
2022-08-28T23:00:50.264Z,56.30
2022-08-28T23:03:17.036Z,56.30
2022-08-28T23:05:43.690Z,56.40
2022-08-28T23:08:10.424Z,56.20
2022-08-28T23:10:57.918Z,56.00
2022-08-28T23:13:23.624Z,55.60
2022-08-28T23:15:50.206Z,55.30
2022-08-28T23:18:16.869Z,55.10
2022-08-28T23:20:43.671Z,54.80
2022-08-28T23:23:11.082Z,54.70
2022-08-28T23:25:37.678Z,54.70
2022-08-28T23:28:06.476Z,54.60
2022-08-28T23:30:33.350Z,54.70
2022-08-28T23:32:59.944Z,54.70
2022-08-28T23:35:26.588Z,54.80
2022-08-28T23:37:53.166Z,54.80
2022-08-28T23:40:21.290Z,54.90
2022-08-28T23:42:48.865Z,55.10
2022-08-28T23:45:16.447Z,55.10
2022-08-28T23:47:43.277Z,55.10
2022-08-28T23:50:12.887Z,55.20
2022-08-28T23:52:39.514Z,55.20
2022-08-28T23:55:06.517Z,55.30
2022-08-28T23:57:34.787Z,55.30
